Time;durP1;ratioP1;P1;durP2;ratioP2;P2;SDS_P1;SDS_P2;PMS_P1;PMS_P2;Temp;Humidity;BMP_temperature;BMP_pressure;BME280_temperature;BME280_humidity;BME280_pressure;Samples;Min_cycle;Max_cycle;Signal;HPM_P1;HPM_P2
2021/12/11 00:01:58;;;;;;;10.13;2.62;;;;;;;13.85;43.99;100049.72;4452799;32;20079;-67
2021/12/11 00:04:31;;;;;;;14.00;2.92;;;;;;;14.52;42.61;100059.75;4454157;32;20115;-67
2021/12/11 00:07:00;;;;;;;13.38;3.33;;;;;;;14.68;42.20;100060.13;4456921;32;20546;-67
2021/12/11 00:09:32;;;;;;;7.28;2.80;;;;;;;14.34;42.99;100052.16;4450949;32;20149;-67
2021/12/11 00:14:38;;;;;;;9.98;2.70;;;;;;;14.07;44.08;100047.41;3980282;32;15022171;-67
2021/12/11 00:17:04;;;;;;;8.85;2.33;;;;;;;14.07;44.08;100047.41;4433097;32;20081;-67
2021/12/11 00:19:34;;;;;;;24.85;4.72;;;;;;;13.75;44.32;100053.06;4430977;32;20383;-67
2021/12/11 00:22:12;;;;;;;9.52;2.28;;;;;;;13.98;44.21;100057.97;4433617;32;20136;-67
2021/12/11 00:24:39;;;;;;;9.43;2.20;;;;;;;14.11;43.70;100072.69;4432480;32;20145;-67
2021/12/11 00:27:08;;;;;;;15.55;2.92;;;;;;;13.80;44.48;100072.19;4431006;32;20081;-67
2021/12/11 00:29:35;;;;;;;14.05;2.20;;;;;;;14.07;43.85;100074.91;4433796;32;20088;-68
2021/12/11 00:34:43;;;;;;;9.13;2.72;;;;;;;14.18;43.49;100075.19;3998413;31;15016594;-67
2021/12/11 00:37:12;;;;;;;8.48;2.08;;;;;;;13.91;44.17;100090.25;4456031;32;20103;-67
2021/12/11 00:42:32;;;;;;;12.37;2.55;;;;;;;14.42;43.11;100106.38;3991407;32;15034331;-67
2021/12/11 00:44:59;;;;;;;10.43;2.22;;;;;;;14.42;43.11;100106.38;4447716;32;20080;-67
2021/12/11 00:47:28;;;;;;;8.48;1.95;;;;;;;13.74;44.16;100103.16;4449784;32;20100;-67
2021/12/11 00:52:42;;;;;;;11.40;1.60;;;;;;;14.00;43.44;100109.22;3984074;32;15022407;-67
2021/12/11 00:55:30;;;;;;;9.60;1.70;;;;;;;13.93;43.53;100116.00;4436124;32;20579;-67
2021/12/11 00:58:10;;;;;;;11.88;2.53;;;;;;;14.13;43.14;100106.16;4438294;32;20041;-67
2021/12/11 01:00:42;;;;;;;10.75;2.00;;;;;;;14.09;42.98;100118.44;4434624;32;20041;-67
2021/12/11 01:03:10;;;;;;;6.60;1.85;;;;;;;14.01;43.22;100120.06;4437710;32;20429;-67
2021/12/11 01:05:41;;;;;;;10.68;3.08;;;;;;;13.90;43.45;100125.44;4436235;32;20060;-67
2021/12/11 01:08:32;;;;;;;9.48;3.05;;;;;;;13.92;43.48;100130.59;4430388;32;20435;-67
2021/12/11 01:16:34;;;;;;;6.30;1.77;;;;;;;14.06;43.18;100139.19;3984128;32;15021669;-67
2021/12/11 01:19:03;;;;;;;7.03;1.60;;;;;;;14.06;43.18;100139.19;4431679;32;20075;-67
2021/12/11 01:24:29;;;;;;;8.80;2.60;;;;;;;14.00;43.40;100143.94;3982893;32;15022235;-67
2021/12/11 01:26:59;;;;;;;13.70;3.17;;;;;;;14.00;43.40;100143.94;4432704;32;20088;-67
2021/12/11 01:29:28;;;;;;;8.07;2.15;;;;;;;13.53;44.11;100154.28;4435592;32;20161;-67
2021/12/11 01:31:56;;;;;;;8.40;2.50;;;;;;;13.53;43.86;100154.28;4436845;32;20098;-67
2021/12/11 01:34:24;;;;;;;11.23;2.80;;;;;;;13.34;43.95;100153.47;4434210;32;20527;-66
2021/12/11 01:36:51;;;;;;;14.10;3.15;;;;;;;13.24;44.31;100157.56;4436237;32;20053;-66
2021/12/11 01:39:24;;;;;;;8.73;2.65;;;;;;;13.35;44.04;100152.22;4438047;32;20379;-66
2021/12/11 01:41:54;;;;;;;5.30;2.22;;;;;;;13.48;43.81;100154.88;4433877;32;20505;-66
2021/12/11 01:44:29;;;;;;;9.77;2.80;;;;;;;13.37;43.94;100168.69;4436505;32;20038;-67
2021/12/11 01:47:03;;;;;;;9.45;2.85;;;;;;;13.48;43.64;100172.66;4437121;32;20494;-66
2021/12/11 01:49:31;;;;;;;14.98;3.08;;;;;;;13.44;43.74;100166.34;4437008;32;20045;-66
2021/12/11 01:52:02;;;;;;;11.63;2.70;;;;;;;13.40;43.96;100173.41;4433982;32;20033;-66
2021/12/11 01:54:33;;;;;;;13.57;3.03;;;;;;;13.17;43.99;100174.84;4436373;32;20077;-66
2021/12/11 01:57:12;;;;;;;8.73;3.70;;;;;;;13.33;43.97;100171.72;4436693;32;20072;-66
2021/12/11 01:59:43;;;;;;;11.18;3.80;;;;;;;13.39;43.82;100171.84;4434417;32;20081;-68
2021/12/11 02:02:14;;;;;;;11.82;4.22;;;;;;;13.37;43.70;100177.19;4439557;32;20483;-68
2021/12/11 02:04:45;;;;;;;16.05;3.95;;;;;;;13.45;43.88;100190.53;4437928;32;20096;-68
2021/12/11 02:07:16;;;;;;;12.57;3.53;;;;;;;13.47;43.79;100199.31;4436061;32;20092;-68
2021/12/11 02:09:50;;;;;;;10.80;3.10;;;;;;;13.37;43.85;100206.25;4433259;32;20093;-68
2021/12/11 02:12:20;;;;;;;14.40;3.22;;;;;;;13.52;43.75;100206.37;4434371;32;20077;-68
2021/12/11 02:14:50;;;;;;;9.98;2.97;;;;;;;13.65;43.41;100213.44;4435647;32;20081;-67
2021/12/11 02:19:55;;;;;;;11.18;2.80;;;;;;;13.59;43.77;100220.19;3953916;32;15724571;-67
2021/12/11 02:22:37;;;;;;;10.88;2.85;;;;;;;13.32;44.79;100211.75;4431930;32;20090;-67
2021/12/11 02:25:11;;;;;;;13.43;3.20;;;;;;;13.58;44.36;100222.25;4430660;32;20072;-67
2021/12/11 02:27:43;;;;;;;11.68;3.60;;;;;;;13.67;44.36;100229.94;4432062;32;20108;-67
2021/12/11 02:38:55;;;;;;;10.57;3.55;;;;;;;14.74;42.49;100204.69;3983123;32;15024888;-67
2021/12/11 02:44:03;;;;;;;16.50;2.70;;;;;;;15.06;42.64;100206.69;3956123;32;15730018;-67
2021/12/11 02:46:43;;;;;;;7.87;2.33;;;;;;;15.06;42.64;100206.69;4434265;32;20041;-67
2021/12/11 02:49:16;;;;;;;11.12;2.08;;;;;;;14.72;42.43;100199.50;4433952;32;20233;-67
2021/12/11 02:54:51;;;;;;;13.50;2.87;;;;;;;15.35;41.61;100230.28;3991454;32;15024457;-68
2021/12/11 02:57:24;;;;;;;10.32;2.50;;;;;;;15.35;41.61;100230.28;4447497;32;20551;-67
2021/12/11 02:59:50;;;;;;;12.20;2.17;;;;;;;14.68;42.89;100220.75;4447408;32;20434;-67
2021/12/11 03:02:23;;;;;;;9.32;2.80;;;;;;;14.60;42.90;100225.22;4451221;32;20055;-68
2021/12/11 03:04:54;;;;;;;14.30;2.80;;;;;;;15.10;42.33;100224.31;4450073;32;20042;-68
2021/12/11 03:07:34;;;;;;;12.45;2.78;;;;;;;14.58;43.25;100222.88;4451652;32;20908;-68
2021/12/11 03:10:01;;;;;;;11.57;2.50;;;;;;;14.98;42.70;100233.81;4446606;32;20461;-68
2021/12/11 03:12:27;;;;;;;13.60;2.37;;;;;;;14.80;42.80;100234.72;4449210;32;20037;-68
2021/12/11 03:14:53;;;;;;;15.40;3.22;;;;;;;14.73;42.85;100245.59;4445839;32;20066;-68
2021/12/11 03:17:21;;;;;;;11.35;2.90;;;;;;;14.92;42.68;100247.88;4449851;32;20099;-68
2021/12/11 03:19:48;;;;;;;13.90;2.83;;;;;;;14.97;42.66;100250.03;4446804;32;20478;-68
2021/12/11 03:22:19;;;;;;;9.25;2.53;;;;;;;14.69;42.74;100237.28;4447785;32;20088;-68
2021/12/11 03:24:47;;;;;;;27.45;3.75;;;;;;;14.80;42.84;100240.37;4447669;32;20029;-68
2021/12/11 03:27:13;;;;;;;20.35;3.05;;;;;;;14.54;43.37;100246.94;4448760;32;20048;-68
2021/12/11 03:29:40;;;;;;;16.55;4.00;;;;;;;14.26;43.70;100251.13;4445113;32;20123;-68
2021/12/11 03:32:08;;;;;;;15.82;3.05;;;;;;;14.40;43.33;100250.44;4447937;32;20089;-68
2021/12/11 03:34:34;;;;;;;17.85;3.97;;;;;;;14.49;43.23;100247.59;4449839;32;20113;-68
2021/12/11 03:37:03;;;;;;;16.83;3.28;;;;;;;14.25;43.61;100250.34;4447470;32;20021;-68
2021/12/11 03:39:34;;;;;;;13.38;3.05;;;;;;;14.58;43.23;100253.22;4445343;32;20068;-68
2021/12/11 03:42:04;;;;;;;15.25;2.90;;;;;;;14.47;43.54;100253.72;4447028;32;20421;-68
2021/12/11 03:44:33;;;;;;;12.98;2.10;;;;;;;14.56;43.43;100264.22;4445027;32;20362;-68
2021/12/11 03:47:06;;;;;;;10.48;2.58;;;;;;;14.44;43.59;100256.72;4445815;32;20522;-68
2021/12/11 03:49:32;;;;;;;12.73;2.22;;;;;;;14.85;43.10;100251.03;4446664;32;20090;-68
2021/12/11 03:51:58;;;;;;;9.98;2.60;;;;;;;14.81;42.93;100247.59;4450678;32;20431;-68
2021/12/11 03:54:29;;;;;;;19.10;2.75;;;;;;;14.84;42.82;100251.50;4449256;32;20037;-68
2021/12/11 03:56:57;;;;;;;15.95;2.75;;;;;;;15.05;42.05;100256.94;4449636;32;20100;-68
2021/12/11 03:59:23;;;;;;;11.12;2.33;;;;;;;14.98;42.65;100262.16;4446480;32;20080;-68
2021/12/11 04:01:54;;;;;;;7.65;2.25;;;;;;;15.02;42.41;100248.59;4443613;32;20105;-68
2021/12/11 04:04:26;;;;;;;10.32;2.70;;;;;;;15.20;42.04;100246.44;4444694;32;20084;-68
2021/12/11 04:06:55;;;;;;;12.98;3.00;;;;;;;15.24;42.00;100249.09;4435489;32;20053;-68
2021/12/11 04:09:21;;;;;;;11.57;2.45;;;;;;;15.05;42.29;100254.09;4433110;32;20077;-68
2021/12/11 04:11:50;;;;;;;13.98;3.22;;;;;;;14.98;42.23;100251.63;4438090;32;20111;-68
2021/12/11 04:14:21;;;;;;;13.00;2.22;;;;;;;15.11;42.22;100260.69;4438584;32;20067;-69
2021/12/11 04:16:48;;;;;;;10.95;2.42;;;;;;;15.29;41.94;100254.91;4438618;32;20117;-68
2021/12/11 04:19:14;;;;;;;15.93;2.95;;;;;;;15.31;41.87;100260.84;4436991;32;20098;-68
2021/12/11 04:21:42;;;;;;;14.23;2.42;;;;;;;15.19;41.86;100259.03;4435635;32;20042;-68
2021/12/11 04:24:10;;;;;;;10.27;2.37;;;;;;;15.12;42.15;100262.22;4438349;32;20161;-68
2021/12/11 04:26:36;;;;;;;10.63;2.62;;;;;;;15.31;41.92;100266.53;4434294;32;20418;-68
2021/12/11 04:29:04;;;;;;;13.20;2.72;;;;;;;15.12;42.15;100265.06;4438043;32;20049;-68
2021/12/11 04:31:32;;;;;;;13.32;2.20;;;;;;;15.12;42.09;100261.44;4437023;32;20049;-68
2021/12/11 04:34:07;;;;;;;14.27;2.22;;;;;;;15.03;42.18;100259.44;4424556;32;20097;-68
2021/12/11 04:36:39;;;;;;;10.70;2.17;;;;;;;15.01;42.53;100267.66;4436885;32;20072;-68
2021/12/11 04:39:08;;;;;;;11.75;1.98;;;;;;;14.78;42.93;100273.25;4437035;32;20415;-68
2021/12/11 04:41:42;;;;;;;13.18;1.83;;;;;;;14.76;43.29;100282.22;4434329;32;20340;-68
2021/12/11 04:44:13;;;;;;;15.77;2.20;;;;;;;14.94;42.93;100281.41;4435895;32;20363;-68
2021/12/11 04:46:38;;;;;;;15.32;2.12;;;;;;;14.79;43.34;100278.44;4438574;32;20424;-68
2021/12/11 04:49:13;;;;;;;11.57;1.90;;;;;;;14.46;43.82;100288.16;4435797;32;20105;-68
2021/12/11 04:52:03;;;;;;;12.05;3.05;;;;;;;14.86;43.19;100294.31;4440599;32;20073;-68
2021/12/11 04:54:43;;;;;;;19.65;2.20;;;;;;;14.90;43.13;100304.22;4439802;32;20450;-68
2021/12/11 04:57:46;;;;;;;19.87;3.30;;;;;;;14.87;42.98;100301.56;4439044;32;20394;-68
2021/12/11 05:05:56;;;;;;;14.60;2.20;;;;;;;14.95;42.72;100322.63;4004367;31;15016113;-68
2021/12/11 05:09:11;;;;;;;11.57;2.85;;;;;;;14.71;43.41;100333.09;4462985;32;20056;-68
2021/12/11 05:11:12;;;;;;;9.88;2.22;;;;;;;14.57;43.24;100330.94;4462028;32;20045;-68
2021/12/11 05:13:39;;;;;;;14.30;2.47;;;;;;;14.52;43.30;100323.06;4463691;32;20029;-68
2021/12/11 05:16:11;;;;;;;15.43;2.35;;;;;;;14.55;43.32;100325.75;4462422;32;21884;-68
2021/12/11 05:18:40;;;;;;;13.10;2.40;;;;;;;14.58;43.35;100341.00;4463554;32;20541;-68
2021/12/11 05:21:10;;;;;;;11.52;2.50;;;;;;;14.57;43.33;100343.03;4462131;32;20053;-68
2021/12/11 05:23:37;;;;;;;12.43;2.28;;;;;;;14.52;43.27;100325.91;4461746;32;20056;-68
2021/12/11 05:26:04;;;;;;;13.60;2.12;;;;;;;14.28;43.47;100336.31;4464566;32;21202;-68
2021/12/11 05:28:30;;;;;;;8.93;2.25;;;;;;;14.22;43.65;100330.50;4460817;32;20055;-68
2021/12/11 05:30:58;;;;;;;14.25;2.70;;;;;;;14.00;43.63;100341.19;4463706;32;20097;-68
2021/12/11 05:33:24;;;;;;;13.30;2.50;;;;;;;14.07;43.87;100338.84;4461546;32;20028;-68
2021/12/11 05:35:51;;;;;;;11.32;2.83;;;;;;;13.79;44.15;100336.47;4462020;32;20096;-68
2021/12/11 05:38:19;;;;;;;13.15;2.97;;;;;;;13.71;44.35;100340.84;4462488;32;20098;-68
2021/12/11 05:40:49;;;;;;;10.50;2.70;;;;;;;13.92;44.12;100340.72;4449111;32;20114;-68
2021/12/11 05:43:16;;;;;;;13.40;2.72;;;;;;;13.98;44.13;100340.88;4463053;32;20104;-68
2021/12/11 05:45:42;;;;;;;10.52;3.58;;;;;;;13.66;44.75;100347.91;4461718;32;20088;-68
2021/12/11 05:48:09;;;;;;;10.70;3.35;;;;;;;13.64;44.84;100350.44;4464521;32;20149;-68
2021/12/11 05:50:41;;;;;;;16.77;4.15;;;;;;;13.72;44.80;100348.09;4462880;32;20021;-68
2021/12/11 05:53:09;;;;;;;15.68;4.07;;;;;;;13.82;44.57;100349.66;4463198;32;20532;-68
2021/12/11 05:55:40;;;;;;;26.27;4.72;;;;;;;13.62;44.89;100347.28;4463585;32;20072;-68
2021/12/11 05:58:11;;;;;;;25.23;4.25;;;;;;;13.64;45.05;100352.47;4463509;32;20097;-68
2021/12/11 06:00:42;;;;;;;10.48;3.30;;;;;;;13.61;44.64;100357.03;4462888;32;20049;-68
2021/12/11 06:03:08;;;;;;;14.98;4.28;;;;;;;13.88;44.62;100361.94;4465263;32;20044;-68
2021/12/11 06:05:35;;;;;;;14.55;3.87;;;;;;;13.75;44.60;100356.41;4460600;32;20087;-68
2021/12/11 06:08:03;;;;;;;12.25;3.67;;;;;;;13.89;44.35;100361.47;4461250;32;20131;-68
2021/12/11 06:10:29;;;;;;;13.75;4.03;;;;;;;13.57;44.49;100367.69;4448564;32;20447;-68
2021/12/11 06:13:00;;;;;;;12.40;3.62;;;;;;;13.75;44.49;100356.41;4468396;32;20033;-68
2021/12/11 06:15:28;;;;;;;17.12;3.97;;;;;;;14.01;44.15;100356.91;4456400;32;20089;-68
2021/12/11 06:17:54;;;;;;;13.40;3.05;;;;;;;13.83;44.58;100365.38;4452033;32;20394;-68
2021/12/11 06:20:25;;;;;;;12.20;3.17;;;;;;;13.55;44.99;100364.56;4456450;32;20414;-68
2021/12/11 06:22:50;;;;;;;15.60;3.78;;;;;;;13.75;44.72;100366.97;4451039;32;20076;-68
2021/12/11 06:25:20;;;;;;;13.07;3.40;;;;;;;13.60;44.85;100369.56;4454313;32;20432;-68
2021/12/11 06:27:46;;;;;;;14.73;3.33;;;;;;;13.69;44.62;100360.34;4448305;32;20135;-68
2021/12/11 06:30:14;;;;;;;16.60;3.25;;;;;;;13.80;44.57;100366.31;4449482;32;20119;-68
2021/12/11 06:32:42;;;;;;;13.48;3.45;;;;;;;13.71;44.83;100361.44;4450799;32;20129;-68
2021/12/11 06:35:17;;;;;;;12.63;3.20;;;;;;;13.56;45.07;100376.66;4451754;32;20094;-68
2021/12/11 06:37:43;;;;;;;17.37;5.00;;;;;;;13.67;44.97;100374.16;4449927;32;20021;-68
2021/12/11 06:40:09;;;;;;;12.48;3.67;;;;;;;13.30;45.33;100376.13;4449888;32;20053;-68
2021/12/11 06:42:36;;;;;;;20.27;4.50;;;;;;;13.41;45.47;100372.84;4452163;32;20159;-68
2021/12/11 06:45:03;;;;;;;14.87;3.65;;;;;;;13.41;45.31;100373.63;4451449;32;20084;-68
2021/12/11 06:47:28;;;;;;;15.60;3.60;;;;;;;13.41;45.35;100381.31;4450013;32;20040;-68
2021/12/11 06:49:54;;;;;;;10.57;3.67;;;;;;;13.07;45.88;100368.16;4450442;32;20165;-68
2021/12/11 06:52:24;;;;;;;15.27;3.95;;;;;;;13.22;45.78;100372.00;4451096;32;20084;-68
2021/12/11 06:54:50;;;;;;;20.40;4.30;;;;;;;13.52;45.14;100382.44;4451137;32;20100;-68
2021/12/11 06:57:17;;;;;;;18.48;4.90;;;;;;;13.41;45.54;100389.81;4450532;32;20089;-68
2021/12/11 06:59:44;;;;;;;20.42;5.20;;;;;;;13.51;45.34;100397.84;4448364;32;20073;-68
2021/12/11 07:02:10;;;;;;;28.50;5.22;;;;;;;13.49;45.49;100396.72;4449008;32;20141;-68
2021/12/11 07:04:37;;;;;;;21.80;6.75;;;;;;;13.51;45.77;100397.06;4449427;32;20109;-68
2021/12/11 07:07:04;;;;;;;24.08;8.35;;;;;;;13.65;46.12;100397.25;4449818;32;20036;-68
2021/12/11 07:09:30;;;;;;;27.55;9.93;;;;;;;13.86;46.14;100390.69;4452320;32;20072;-68
2021/12/11 07:11:57;;;;;;;34.08;11.02;;;;;;;13.88;46.49;100393.03;4451684;32;20677;-68
2021/12/11 07:14:26;;;;;;;31.90;10.82;;;;;;;14.04;46.63;100401.22;4450048;32;20063;-68
2021/12/11 07:16:51;;;;;;;34.10;9.57;;;;;;;14.40;46.51;100404.09;4450897;32;20374;-68
2021/12/11 07:19:17;;;;;;;33.88;10.43;;;;;;;14.59;46.20;100408.50;4449407;32;20203;-68
2021/12/11 07:21:44;;;;;;;34.38;9.93;;;;;;;14.92;45.53;100406.53;4453148;32;20076;-68
2021/12/11 07:24:13;;;;;;;30.65;9.23;;;;;;;15.21;45.21;100412.41;4451861;32;20029;-68
2021/12/11 07:26:38;;;;;;;25.35;9.32;;;;;;;15.34;44.72;100417.91;4450036;32;20512;-68
2021/12/11 07:29:10;;;;;;;24.20;8.13;;;;;;;15.46;44.09;100397.03;4447467;32;20183;-68
2021/12/11 07:31:37;;;;;;;41.22;9.20;;;;;;;15.67;43.02;100402.47;4437795;32;20797;-68
2021/12/11 07:34:04;;;;;;;26.73;7.75;;;;;;;15.86;43.56;100395.41;4452809;32;20453;-68
2021/12/11 07:36:31;;;;;;;23.65;6.75;;;;;;;15.66;43.44;100398.06;4452312;32;20054;-68
2021/12/11 07:39:00;;;;;;;19.25;6.50;;;;;;;15.53;43.67;100403.16;4450417;32;20041;-68
2021/12/11 07:41:26;;;;;;;26.02;7.20;;;;;;;15.97;42.64;100411.88;4451505;32;20078;-68
2021/12/11 07:43:52;;;;;;;34.22;7.18;;;;;;;15.65;43.11;100418.41;4450449;32;20033;-68
2021/12/11 07:46:24;;;;;;;22.90;7.87;;;;;;;15.78;42.99;100421.78;4448745;32;20506;-68
2021/12/11 07:48:50;;;;;;;25.85;7.97;;;;;;;15.88;42.90;100432.59;4447572;32;20063;-68
2021/12/11 07:51:18;;;;;;;26.25;7.75;;;;;;;15.80;42.78;100425.69;4451722;32;20400;-68
2021/12/11 07:53:44;;;;;;;39.88;8.63;;;;;;;15.74;43.07;100432.53;4451718;32;20541;-68
2021/12/11 07:56:11;;;;;;;28.87;8.85;;;;;;;15.81;42.95;100427.25;4453342;32;20079;-68
2021/12/11 07:58:37;;;;;;;30.67;8.95;;;;;;;15.90;43.10;100432.12;4447660;32;20421;-68
2021/12/11 08:01:07;;;;;;;25.05;8.52;;;;;;;15.77;42.97;100428.72;4449873;32;20477;-68
2021/12/11 08:03:33;;;;;;;28.38;8.10;;;;;;;15.92;43.31;100446.59;4453258;32;20422;-68
2021/12/11 08:05:59;;;;;;;25.92;8.27;;;;;;;15.97;43.16;100434.59;4448649;32;20084;-68
2021/12/11 08:08:26;;;;;;;27.35;10.00;;;;;;;15.93;43.00;100434.00;4446880;32;20084;-68
2021/12/11 08:10:58;;;;;;;30.65;8.38;;;;;;;15.94;43.03;100438.41;4446073;32;20033;-68
2021/12/11 08:13:25;;;;;;;34.95;9.07;;;;;;;16.16;42.65;100432.41;4449169;32;20072;-68
2021/12/11 08:15:51;;;;;;;27.80;8.65;;;;;;;15.89;42.38;100441.88;4450204;32;20103;-68
2021/12/11 08:18:17;;;;;;;29.42;8.85;;;;;;;15.86;43.17;100451.34;4452790;32;20099;-68
2021/12/11 08:20:45;;;;;;;29.50;8.88;;;;;;;15.94;43.23;100446.91;4447692;32;20032;-68
2021/12/11 08:23:13;;;;;;;31.45;9.25;;;;;;;16.03;43.02;100449.69;4448858;32;20152;-68
2021/12/11 08:25:41;;;;;;;31.00;8.32;;;;;;;16.07;42.94;100449.53;4445903;32;20032;-68
2021/12/11 08:28:09;;;;;;;25.92;9.50;;;;;;;15.66;43.58;100448.34;4448809;32;20059;-68
2021/12/11 08:30:38;;;;;;;32.47;8.60;;;;;;;15.95;42.90;100443.59;4448625;32;20056;-68
2021/12/11 08:33:04;;;;;;;24.05;6.85;;;;;;;15.78;43.31;100444.47;4448027;32;20052;-68
2021/12/11 08:35:30;;;;;;;28.30;7.87;;;;;;;15.48;43.42;100442.75;4447125;32;20218;-68
2021/12/11 08:37:56;;;;;;;29.50;7.80;;;;;;;15.46;43.54;100439.59;4450674;32;20033;-68
2021/12/11 08:40:28;;;;;;;24.25;5.80;;;;;;;15.52;43.21;100440.50;4448460;32;20044;-68
2021/12/11 08:42:55;;;;;;;26.02;5.78;;;;;;;15.81;42.94;100441.44;4450997;32;20124;-68
2021/12/11 08:45:26;;;;;;;28.52;5.70;;;;;;;15.52;42.84;100446.19;4450193;32;20076;-68
2021/12/11 08:47:57;;;;;;;20.37;5.15;;;;;;;15.77;42.59;100449.38;4450505;32;20048;-68
2021/12/11 08:50:28;;;;;;;19.27;5.03;;;;;;;15.80;42.24;100441.94;4448979;32;20037;-68
2021/12/11 08:52:55;;;;;;;30.25;5.32;;;;;;;15.56;42.13;100450.41;4448360;32;20158;-68
2021/12/11 08:55:27;;;;;;;27.20;4.40;;;;;;;15.66;42.13;100459.69;4450923;32;20518;-68
2021/12/11 08:57:53;;;;;;;35.22;4.85;;;;;;;16.08;41.40;100451.06;4449275;32;20100;-68
2021/12/11 09:03:09;;;;;;;13.95;3.35;;;;;;;17.22;39.20;100451.03;3992850;31;15133626;-67
2021/12/11 09:05:45;;;;;;;24.80;5.05;;;;;;;17.22;39.20;100451.03;4447565;32;20040;-68
2021/12/11 09:08:17;;;;;;;23.83;4.22;;;;;;;17.06;39.26;100445.84;4447047;32;20052;-68
2021/12/11 09:21:33;;;;;;;18.27;3.80;;;;;;;17.52;38.13;100455.44;3998779;31;15015591;-68
2021/12/11 09:24:07;;;;;;;17.70;2.50;;;;;;;17.52;38.13;100455.44;4458304;32;20084;-69
2021/12/11 09:26:40;;;;;;;11.12;2.35;;;;;;;17.23;38.01;100444.84;4458131;32;20460;-68
2021/12/11 09:29:17;;;;;;;21.55;3.78;;;;;;;17.44;37.76;100454.25;4457635;32;20465;-68
2021/12/11 09:32:05;;;;;;;14.23;3.97;;;;;;;17.58;37.25;100454.25;4456193;32;20431;-69
2021/12/11 09:34:36;;;;;;;28.50;5.32;;;;;;;17.15;38.70;100452.19;4454900;32;20053;-69
2021/12/11 09:37:04;;;;;;;22.17;5.40;;;;;;;16.90;39.08;100451.97;4455999;32;20458;-67
2021/12/11 09:42:15;;;;;;;19.02;5.18;;;;;;;16.70;39.46;100485.97;3983739;32;15022518;-67
2021/12/11 09:47:21;;;;;;;17.55;4.75;;;;;;;17.52;38.68;100478.19;3983296;32;15022757;-68
2021/12/11 09:49:56;;;;;;;25.30;5.18;;;;;;;17.52;38.68;100478.19;4430252;32;20041;-68
2021/12/11 09:52:23;;;;;;;21.33;5.53;;;;;;;17.38;38.74;100476.12;4429850;32;20108;-68
2021/12/11 09:54:55;;;;;;;27.87;8.15;;;;;;;17.65;38.13;100476.59;4433954;32;20033;-68
2021/12/11 09:57:23;;;;;;;28.70;5.82;;;;;;;18.03;37.91;100471.97;4433179;32;20088;-68
2021/12/11 09:59:52;;;;;;;24.83;6.95;;;;;;;18.08;37.43;100471.28;4432199;32;20045;-68
2021/12/11 10:02:22;;;;;;;16.58;4.85;;;;;;;18.12;37.87;100483.22;4429743;32;20044;-68
2021/12/11 10:04:59;;;;;;;20.08;4.22;;;;;;;18.30;37.10;100486.59;4430447;32;20384;-68
2021/12/11 10:07:34;;;;;;;20.42;3.92;;;;;;;17.98;37.00;100476.31;4432398;32;20094;-68
2021/12/11 10:12:54;;;;;;;25.00;3.85;;;;;;;18.11;36.68;100479.62;3996228;31;15014766;-68
2021/12/11 10:21:00;;;;;;;17.98;4.32;;;;;;;17.16;39.06;100482.22;3982767;32;15023751;-69
2021/12/11 10:23:31;;;;;;;12.20;3.05;;;;;;;17.16;39.06;100482.22;4435596;32;20085;-69
2021/12/11 10:25:59;;;;;;;20.42;4.15;;;;;;;16.57;39.82;100477.69;4433945;32;20037;-69
2021/12/11 10:28:28;;;;;;;21.37;4.15;;;;;;;16.03;41.00;100478.06;4432299;32;20477;-68
2021/12/11 10:31:00;;;;;;;20.42;3.87;;;;;;;16.27;40.97;100472.41;4434348;32;20030;-68
2021/12/11 10:33:29;;;;;;;23.40;3.90;;;;;;;16.39;40.58;100474.19;4435172;32;20073;-68
2021/12/11 10:35:57;;;;;;;25.67;4.78;;;;;;;16.39;40.94;100472.16;4435463;32;20038;-67
2021/12/11 10:38:25;;;;;;;22.77;3.95;;;;;;;16.44;40.99;100474.34;4436560;32;20465;-67
2021/12/11 10:40:54;;;;;;;23.15;4.72;;;;;;;16.29;41.27;100476.31;4431151;32;20026;-69
2021/12/11 10:43:26;;;;;;;22.95;3.92;;;;;;;16.71;40.62;100471.28;4438642;32;20301;-68
2021/12/11 10:45:52;;;;;;;20.50;4.53;;;;;;;16.92;40.05;100475.81;4435773;32;20130;-68
2021/12/11 10:48:27;;;;;;;20.62;3.70;;;;;;;16.75;40.23;100466.19;4435694;32;20073;-69
2021/12/11 10:50:58;;;;;;;22.47;4.67;;;;;;;16.98;39.96;100468.19;4434978;32;20073;-69
2021/12/11 10:53:27;;;;;;;16.40;3.83;;;;;;;17.34;39.29;100462.09;4434663;32;20026;-69
2021/12/11 10:55:55;;;;;;;20.67;3.97;;;;;;;17.05;40.01;100473.47;4436313;32;20361;-68
2021/12/11 10:58:25;;;;;;;20.35;4.00;;;;;;;17.02;40.22;100468.75;4432689;32;20380;-68
2021/12/11 11:03:32;;;;;;;18.17;4.62;;;;;;;18.07;39.12;100466.88;3984457;32;15021684;-68
2021/12/11 11:05:58;;;;;;;27.45;6.25;;;;;;;18.07;39.12;100466.88;4436708;32;20045;-68
2021/12/11 11:08:24;;;;;;;21.62;5.43;;;;;;;17.78;39.06;100462.84;4438002;32;20085;-68
2021/12/11 11:10:56;;;;;;;21.08;5.85;;;;;;;17.68;38.89;100472.75;4434571;32;20068;-69
2021/12/11 11:13:23;;;;;;;20.60;3.50;;;;;;;17.62;39.22;100463.34;4438535;32;20074;-69
2021/12/11 11:15:51;;;;;;;23.38;3.80;;;;;;;17.01;39.95;100457.87;4438606;32;20048;-69
2021/12/11 11:18:19;;;;;;;18.83;4.07;;;;;;;17.25;39.95;100459.34;4435602;32;21188;-69
2021/12/11 11:23:28;;;;;;;23.58;4.43;;;;;;;17.38;40.48;100454.16;3982482;32;15022049;-68
2021/12/11 11:25:58;;;;;;;11.48;2.95;;;;;;;17.38;40.48;100454.16;4435759;32;20757;-68
2021/12/11 11:28:27;;;;;;;17.75;3.03;;;;;;;16.68;41.58;100457.25;4438916;32;20074;-68
2021/12/11 11:30:59;;;;;;;25.05;5.20;;;;;;;16.34;42.41;100450.09;4437566;32;20430;-68
2021/12/11 11:33:27;;;;;;;26.77;4.37;;;;;;;16.44;42.18;100445.19;4438990;32;20045;-68
2021/12/11 11:35:54;;;;;;;23.70;3.75;;;;;;;16.37;42.37;100454.81;4437115;32;21079;-68
2021/12/11 11:38:25;;;;;;;22.75;3.87;;;;;;;16.01;43.21;100442.94;4436645;32;20089;-68
2021/12/11 11:40:56;;;;;;;21.20;3.60;;;;;;;15.61;43.57;100441.25;4434812;32;20033;-68
2021/12/11 11:43:22;;;;;;;18.75;4.40;;;;;;;15.81;43.92;100447.13;4437467;32;20069;-67
2021/12/11 11:45:52;;;;;;;20.30;4.07;;;;;;;15.41;45.29;100449.53;4439591;32;20072;-68
2021/12/11 11:48:21;;;;;;;20.67;5.30;;;;;;;15.44;44.88;100447.81;4438100;32;20112;-67
2021/12/11 11:50:48;;;;;;;23.98;4.70;;;;;;;15.73;44.89;100445.94;4439755;32;20047;-67
2021/12/11 11:53:16;;;;;;;17.45;5.07;;;;;;;16.02;44.39;100448.13;4437769;32;20073;-67
2021/12/11 11:55:48;;;;;;;21.50;4.03;;;;;;;15.86;44.40;100437.16;4428144;32;20174;-67
2021/12/11 11:58:16;;;;;;;24.42;3.55;;;;;;;16.06;43.83;100437.37;4436410;32;20037;-67
2021/12/11 12:00:47;;;;;;;16.90;3.97;;;;;;;16.12;43.11;100432.59;4436312;32;20107;-67
2021/12/11 12:03:18;;;;;;;13.88;3.33;;;;;;;16.26;43.26;100431.84;4437863;32;20055;-67
2021/12/11 12:05:48;;;;;;;25.15;3.78;;;;;;;16.28;43.08;100435.00;4439165;32;20454;-67
2021/12/11 12:08:15;;;;;;;16.23;3.58;;;;;;;16.04;43.47;100431.38;4436214;32;20615;-67
2021/12/11 12:10:41;;;;;;;24.75;3.90;;;;;;;15.91;43.74;100425.97;4435070;32;20115;-67
2021/12/11 12:13:09;;;;;;;23.50;3.92;;;;;;;15.58;44.60;100413.06;4439783;32;20137;-67
2021/12/11 12:15:40;;;;;;;16.52;3.60;;;;;;;16.10;43.90;100420.16;4438107;32;20081;-67
2021/12/11 12:18:07;;;;;;;21.62;4.32;;;;;;;16.50;43.29;100420.50;4435705;32;20056;-67
2021/12/11 12:20:34;;;;;;;18.12;4.10;;;;;;;16.37;43.08;100415.03;4437760;32;20098;-67
2021/12/11 12:23:01;;;;;;;24.85;4.07;;;;;;;16.45;42.74;100412.66;4439427;32;20026;-67
2021/12/11 12:25:28;;;;;;;27.35;3.97;;;;;;;16.63;42.29;100401.12;4430022;32;20064;-67
2021/12/11 12:27:54;;;;;;;27.75;5.37;;;;;;;16.23;42.61;100407.25;4437190;32;20061;-67
2021/12/11 12:32:56;;;;;;;19.58;4.68;;;;;;;16.82;42.77;100394.78;3987283;31;15023709;-67
2021/12/11 12:35:25;;;;;;;21.67;4.20;;;;;;;16.82;42.77;100394.78;4436623;32;20036;-67
2021/12/11 12:37:51;;;;;;;19.77;4.35;;;;;;;17.10;42.06;100386.72;4436821;32;20037;-67
2021/12/11 12:40:27;;;;;;;15.82;3.60;;;;;;;17.16;41.44;100388.38;4436307;32;20737;-67
2021/12/11 12:43:04;;;;;;;27.67;4.82;;;;;;;17.17;41.49;100387.09;4435854;32;20419;-67
2021/12/11 12:45:36;;;;;;;18.75;4.50;;;;;;;17.57;40.87;100384.38;4436775;32;20069;-67